Time;durP1;ratioP1;P1;durP2;ratioP2;P2;SDS_P1;SDS_P2;PMS_P1;PMS_P2;Temp;Humidity;BMP_temperature;BMP_pressure;BME280_temperature;BME280_humidity;BME280_pressure;Samples;Min_cycle;Max_cycle;Signal;HPM_P1;HPM_P2
2022/09/22 00:04:17;;;;;;;10.00;4.80;;;;;;;10.08;100.00;101006.92;657117;1279;141349;-89
2022/09/22 00:19:23;;;;;;;9.20;5.30;;;;;;;10.01;100.00;101005.41;657825;1278;139853;-89
2022/09/22 00:34:27;;;;;;;20.30;8.00;;;;;;;10.20;100.00;101001.91;656638;1278;139844;-89
2022/09/22 00:49:59;;;;;;;25.80;13.60;;;;;;;10.02;100.00;101000.95;657599;1278;140519;-90
2022/09/22 01:05:04;;;;;;;24.20;10.40;;;;;;;9.72;100.00;100999.10;657617;1280;139969;-90
2022/09/22 01:20:32;;;;;;;15.60;9.00;;;;;;;9.53;100.00;101002.05;657336;1280;140575;-89
2022/09/22 01:36:01;;;;;;;15.60;7.50;;;;;;;9.43;100.00;101002.41;657401;1280;138628;-89
2022/09/22 01:51:14;;;;;;;15.20;8.80;;;;;;;9.29;100.00;101010.02;657404;1277;140062;-88
2022/09/22 02:06:24;;;;;;;17.20;7.40;;;;;;;9.29;100.00;101004.14;656579;1277;139667;-91
2022/09/22 02:21:27;;;;;;;14.10;7.10;;;;;;;9.35;100.00;101011.59;656657;1277;140661;-89
2022/09/22 02:36:45;;;;;;;11.70;7.20;;;;;;;9.42;100.00;101010.16;656553;1277;139318;-89
2022/09/22 02:51:49;;;;;;;15.00;9.00;;;;;;;9.60;100.00;101012.25;656396;1277;141035;-89
2022/09/22 03:06:52;;;;;;;14.50;8.00;;;;;;;9.70;100.00;101015.52;656363;1277;139013;-88
2022/09/22 03:21:55;;;;;;;14.00;7.00;;;;;;;9.76;100.00;101019.98;656750;1277;140185;-89
2022/09/22 03:36:58;;;;;;;16.60;7.90;;;;;;;9.73;100.00;101009.49;657195;1277;139763;-90
2022/09/22 03:52:01;;;;;;;15.80;7.90;;;;;;;9.66;100.00;101007.45;656763;1277;139852;-91
2022/09/22 04:07:04;;;;;;;19.20;9.00;;;;;;;9.55;100.00;101008.60;656325;1277;1001075;-90
2022/09/22 04:22:09;;;;;;;16.30;9.90;;;;;;;9.51;100.00;101015.33;656653;1277;140026;-93
2022/09/22 04:37:12;;;;;;;25.70;13.60;;;;;;;9.43;100.00;101018.46;657150;1277;139826;-90
2022/09/22 04:52:15;;;;;;;19.00;12.00;;;;;;;9.61;100.00;101021.58;656424;1277;140358;-89
2022/09/22 05:07:18;;;;;;;21.40;11.90;;;;;;;9.91;100.00;101019.59;656919;1277;140603;-90
2022/09/22 05:22:22;;;;;;;22.50;11.30;;;;;;;10.25;100.00;101029.33;657292;1278;139755;-90
2022/09/22 05:37:25;;;;;;;20.80;11.90;;;;;;;10.53;100.00;101029.17;657631;1277;140163;-91
2022/09/22 05:52:28;;;;;;;25.00;13.40;;;;;;;11.02;100.00;101033.66;658062;1279;141171;-91
2022/09/22 06:07:31;;;;;;;19.80;11.40;;;;;;;11.49;100.00;101048.01;658361;1279;140634;-89
2022/09/22 06:22:36;;;;;;;26.40;14.10;;;;;;;11.70;100.00;101050.19;657189;1277;141464;-92
2022/09/22 06:37:39;;;;;;;42.90;20.60;;;;;;;12.05;100.00;101053.31;657111;1277;139625;-92
2022/09/22 06:52:43;;;;;;;19.20;10.90;;;;;;;12.37;100.00;101053.33;658295;1277;140880;-90
2022/09/22 07:07:46;;;;;;;17.50;9.70;;;;;;;13.06;100.00;101062.59;657380;1277;139700;-90
2022/09/22 07:22:49;;;;;;;10.50;6.60;;;;;;;13.63;100.00;101068.64;658228;1277;141600;-91
2022/09/22 07:38:02;;;;;;;14.10;6.70;;;;;;;13.93;100.00;101076.31;657633;1277;140952;-91
2022/09/22 07:53:05;;;;;;;6.50;4.90;;;;;;;14.54;100.00;101076.60;657555;1277;140440;-90
2022/09/22 08:08:08;;;;;;;10.00;5.20;;;;;;;15.21;100.00;101079.20;658283;1277;139184;-89
2022/09/22 08:23:12;;;;;;;6.70;3.40;;;;;;;15.77;100.00;101074.38;659640;1277;139869;-90
2022/09/22 08:38:16;;;;;;;7.10;4.00;;;;;;;16.36;100.00;101069.50;660000;1277;139185;-88
2022/09/22 08:53:22;;;;;;;4.10;2.90;;;;;;;17.11;100.00;101076.27;659639;1277;140235;-89
2022/09/22 09:08:40;;;;;;;3.00;2.20;;;;;;;17.34;100.00;101074.91;659298;1277;140192;-90
2022/09/22 09:23:46;;;;;;;2.40;1.90;;;;;;;16.84;99.33;101065.20;658939;1277;140271;-91
2022/09/22 09:39:14;;;;;;;2.80;1.70;;;;;;;18.18;96.66;101060.81;662083;1277;140495;-91
2022/09/22 09:54:19;;;;;;;3.00;2.10;;;;;;;18.09;90.72;101061.23;657079;1277;141344;-89
2022/09/22 10:09:28;;;;;;;2.80;2.10;;;;;;;17.67;88.60;101058.54;656775;1277;139851;-91
2022/09/22 10:24:33;;;;;;;1.60;1.30;;;;;;;18.06;85.35;101059.39;656736;1277;139428;-90
2022/09/22 10:39:57;;;;;;;4.30;2.30;;;;;;;18.11;81.04;101051.97;658437;1277;140932;-90
2022/09/22 10:55:36;;;;;;;3.80;1.70;;;;;;;17.91;79.69;101050.88;659601;1277;140117;-90
2022/09/22 11:26:27;;;;;;;3.50;2.50;;;;;;;18.46;74.86;101030.52;661308;1277;139351;-89
2022/09/22 11:41:48;;;;;;;3.40;2.00;;;;;;;19.28;71.29;101017.50;657279;1277;139739;-88
2022/09/22 11:56:56;;;;;;;4.80;2.20;;;;;;;18.88;68.89;101014.75;656684;1277;140076;-90
2022/09/22 12:12:02;;;;;;;3.50;2.40;;;;;;;18.82;69.29;101020.89;656954;1277;141048;-90
2022/09/22 12:27:20;;;;;;;1.30;1.10;;;;;;;18.79;69.15;101017.15;656418;1277;138983;-89
2022/09/22 12:42:36;;;;;;;2.80;1.80;;;;;;;19.88;66.65;101010.73;658632;1277;139246;-92
2022/09/22 12:57:47;;;;;;;2.90;1.50;;;;;;;21.06;63.02;101000.81;658136;1277;139211;-90
2022/09/22 13:13:20;;;;;;;4.20;2.40;;;;;;;20.03;62.71;101001.23;658234;1277;140015;-90
2022/09/22 13:28:24;;;;;;;6.40;2.00;;;;;;;20.62;63.91;100989.40;657200;1277;139423;-89
2022/09/22 13:43:33;;;;;;;8.80;3.40;;;;;;;19.53;64.43;100991.05;657023;1277;139509;-89
2022/09/22 13:58:40;;;;;;;5.10;2.50;;;;;;;19.41;66.56;100989.77;656820;1277;139895;-89
2022/09/22 14:13:54;;;;;;;3.20;2.60;;;;;;;26.92;58.99;100979.56;657969;1277;139476;-89
2022/09/22 14:29:13;;;;;;;2.00;1.80;;;;;;;27.36;49.75;100961.64;657184;1277;139364;-90
2022/09/22 14:44:41;;;;;;;5.80;4.00;;;;;;;21.48;55.95;100948.00;658288;1277;140181;-90
2022/09/22 15:15:30;;;;;;;9.70;5.10;;;;;;;17.09;72.71;100963.41;660561;1277;140437;-86
2022/09/22 15:30:35;;;;;;;9.40;4.20;;;;;;;15.83;79.53;100967.63;657759;1280;140395;-90
2022/09/22 15:45:46;;;;;;;39.10;15.20;;;;;;;15.82;80.61;100971.06;660257;1277;140626;-85
2022/09/22 16:00:51;;;;;;;23.40;10.40;;;;;;;16.41;81.77;100967.70;657797;1278;139893;-93
2022/09/22 16:15:56;;;;;;;32.50;18.10;;;;;;;16.60;83.20;100967.82;658432;1277;1087911;-92
2022/09/22 16:31:04;;;;;;;73.20;39.80;;;;;;;15.88;86.00;100978.02;658764;1278;139683;-88
2022/09/22 16:46:26;;;;;;;65.30;32.10;;;;;;;15.29;88.93;100977.33;657502;1277;140929;-92
2022/09/22 17:01:36;;;;;;;60.70;32.90;;;;;;;15.10;90.90;100978.92;658664;1277;139639;-93
2022/09/22 17:16:42;;;;;;;86.60;48.40;;;;;;;14.79;92.27;100982.41;666555;1277;140101;-93
2022/09/22 17:31:46;;;;;;;48.60;30.00;;;;;;;14.33;94.22;100985.23;662118;1280;139702;-93
2022/09/22 18:02:16;;;;;;;39.80;22.70;;;;;;;13.57;95.81;100995.85;664458;1277;139180;-92
2022/09/22 18:17:23;;;;;;;53.20;27.10;;;;;;;13.23;96.22;100999.15;660395;1277;139632;-96
2022/09/22 18:32:28;;;;;;;86.60;44.40;;;;;;;12.82;95.99;101006.73;664412;1278;140841;-93
2022/09/22 18:47:39;;;;;;;66.60;37.90;;;;;;;12.30;95.90;101013.75;660199;1277;139886;-93
2022/09/22 19:02:44;;;;;;;106.80;52.10;;;;;;;11.83;96.56;101019.20;660403;1277;140665;-94
2022/09/22 19:17:49;;;;;;;114.60;51.10;;;;;;;11.55;97.96;101019.20;659730;1280;140293;-94
2022/09/22 19:32:53;;;;;;;82.20;41.90;;;;;;;11.39;99.01;101018.35;661493;1277;139618;-95
2022/09/22 19:47:57;;;;;;;112.20;43.60;;;;;;;11.29;99.60;101027.36;665136;1277;139329;-94
2022/09/22 20:03:01;;;;;;;76.90;36.90;;;;;;;11.02;100.00;101027.70;661714;1279;141158;-93
2022/09/22 20:18:05;;;;;;;289.00;105.90;;;;;;;10.83;100.00;101020.55;662268;1277;140201;-95
2022/09/22 20:33:20;;;;;;;78.80;39.70;;;;;;;10.67;100.00;101008.67;660563;1277;141408;-94
2022/09/22 20:48:24;;;;;;;56.10;32.40;;;;;;;10.49;100.00;101016.21;662521;1277;139860;-91
2022/09/22 21:03:28;;;;;;;46.50;24.90;;;;;;;10.09;100.00;101010.74;661040;1277;140181;-93
2022/09/22 21:18:33;;;;;;;29.60;17.10;;;;;;;9.92;100.00;101002.73;661011;1277;139262;-94
2022/09/22 21:33:37;;;;;;;20.10;11.30;;;;;;;9.78;100.00;100993.98;661547;1277;139279;-91
2022/09/22 21:48:41;;;;;;;23.50;13.20;;;;;;;9.49;100.00;100985.77;661256;1277;140291;-92
2022/09/22 22:03:47;;;;;;;101.20;32.30;;;;;;;9.34;100.00;100990.86;661438;1277;140021;-93
2022/09/22 22:18:51;;;;;;;180.70;63.80;;;;;;;9.13;100.00;100987.96;662987;1277;139616;-91
2022/09/22 22:33:55;;;;;;;113.40;48.00;;;;;;;9.04;100.00;100985.45;663742;1277;140261;-94
2022/09/22 22:48:59;;;;;;;95.20;39.70;;;;;;;8.97;100.00;100975.28;662951;1278;139420;-92
2022/09/22 23:04:07;;;;;;;36.00;17.20;;;;;;;8.92;100.00;100962.40;662019;1280;139130;-93
2022/09/22 23:19:12;;;;;;;;;;;;;;;8.79;100.00;100950.93;663100;1279;139636;-93
2022/09/22 23:34:15;;;;;;;30.20;13.90;;;;;;;8.57;100.00;100941.46;663788;1277;125381;-93
2022/09/22 23:49:18;;;;;;;387.70;98.80;;;;;;;8.41;100.00;100931.71;664488;1280;139825;-94
